Time;durP1;ratioP1;P1;durP2;ratioP2;P2;SDS_P1;SDS_P2;PMS_P1;PMS_P2;Temp;Humidity;BMP_temperature;BMP_pressure;BME280_temperature;BME280_humidity;BME280_pressure;Samples;Min_cycle;Max_cycle;Signal;HPM_P1;HPM_P2
2021/11/25 00:02:09;;;;;;;76.10;49.90;;;5.50;89.20;;;;;;5040075;28;20040;-83
2021/11/25 00:04:34;;;;;;;71.32;45.72;;;5.50;89.10;;;;;;5044416;28;20471;-84
2021/11/25 00:07:00;;;;;;;74.03;48.42;;;5.50;89.10;;;;;;5041183;28;20076;-83
2021/11/25 00:09:26;;;;;;;78.30;49.72;;;5.50;89.10;;;;;;5047183;28;20061;-83
2021/11/25 00:11:51;;;;;;;80.30;50.72;;;5.50;89.20;;;;;;5051122;28;20407;-83
2021/11/25 00:14:17;;;;;;;78.00;49.80;;;5.50;89.20;;;;;;5048869;28;20171;-83
2021/11/25 00:16:45;;;;;;;75.55;50.58;;;5.50;89.20;;;;;;5045461;28;20099;-83
2021/11/25 00:19:11;;;;;;;76.43;48.15;;;5.60;89.20;;;;;;5044230;28;20036;-84
2021/11/25 00:21:37;;;;;;;72.25;46.25;;;5.60;89.20;;;;;;5039119;28;20029;-83
2021/11/25 00:24:05;;;;;;;73.05;49.40;;;5.50;89.20;;;;;;5048485;28;20086;-84
2021/11/25 00:26:32;;;;;;;78.90;48.15;;;5.60;89.20;;;;;;5049913;28;20048;-84
2021/11/25 00:28:58;;;;;;;76.80;50.13;;;5.60;89.30;;;;;;5047045;28;20120;-84
2021/11/25 00:31:23;;;;;;;73.30;48.78;;;5.60;89.20;;;;;;5056587;28;20061;-86
2021/11/25 00:33:49;;;;;;;72.22;48.15;;;5.50;89.20;;;;;;5057400;28;20395;-83
2021/11/25 00:36:15;;;;;;;73.80;48.17;;;5.60;89.20;;;;;;5053688;28;20119;-84
2021/11/25 00:38:41;;;;;;;76.82;47.35;;;5.60;89.10;;;;;;5072830;28;20024;-88
2021/11/25 00:41:06;;;;;;;70.57;45.95;;;5.60;89.10;;;;;;5071204;28;20030;-86
2021/11/25 00:43:32;;;;;;;70.97;45.60;;;5.60;89.10;;;;;;5065551;28;20041;-84
2021/11/25 00:45:58;;;;;;;71.22;45.17;;;5.50;89.00;;;;;;5050549;28;20365;-84
2021/11/25 00:48:23;;;;;;;71.30;45.03;;;5.50;89.10;;;;;;5051775;28;20492;-84
2021/11/25 00:50:50;;;;;;;73.18;46.13;;;5.50;89.10;;;;;;5049717;28;20028;-84
2021/11/25 00:53:16;;;;;;;72.32;46.22;;;5.50;89.10;;;;;;5051922;28;20075;-84
2021/11/25 00:55:43;;;;;;;75.82;48.17;;;5.50;89.00;;;;;;5050691;28;20476;-84
2021/11/25 00:58:09;;;;;;;71.53;46.42;;;5.50;88.90;;;;;;5046862;28;20075;-84
2021/11/25 01:00:35;;;;;;;68.28;45.20;;;5.40;89.00;;;;;;5043072;28;20048;-85
2021/11/25 01:03:01;;;;;;;67.65;43.78;;;5.50;89.10;;;;;;5043422;28;20040;-83
2021/11/25 01:05:27;;;;;;;74.93;44.42;;;5.40;89.10;;;;;;5043503;28;20037;-83
2021/11/25 01:07:53;;;;;;;72.95;46.42;;;5.50;89.20;;;;;;5043140;28;20104;-84
2021/11/25 01:10:22;;;;;;;70.32;44.97;;;5.50;89.20;;;;;;5046377;28;20061;-83
2021/11/25 01:12:49;;;;;;;74.65;46.30;;;5.50;89.20;;;;;;5050716;28;20037;-84
2021/11/25 01:15:17;;;;;;;70.00;44.22;;;5.40;89.40;;;;;;5047551;28;20025;-83
2021/11/25 01:17:44;;;;;;;65.35;44.38;;;5.50;89.30;;;;;;5049778;28;20454;-84
2021/11/25 01:20:15;;;;;;;69.22;45.35;;;5.50;89.40;;;;;;5060473;28;20112;-88
2021/11/25 01:22:41;;;;;;;69.97;45.67;;;5.50;89.40;;;;;;5070608;28;20069;-88
2021/11/25 01:25:07;;;;;;;64.10;42.92;;;5.50;89.40;;;;;;5072172;28;20036;-86
2021/11/25 01:27:33;;;;;;;63.85;43.10;;;5.50;89.40;;;;;;5070532;28;20039;-87
2021/11/25 01:29:59;;;;;;;63.30;41.10;;;5.50;89.40;;;;;;5066562;28;20013;-84
2021/11/25 01:32:25;;;;;;;67.93;43.03;;;5.50;89.40;;;;;;5046165;28;20094;-82
2021/11/25 01:34:51;;;;;;;75.53;45.70;;;5.50;89.40;;;;;;5051843;28;20033;-86
2021/11/25 01:37:16;;;;;;;70.30;45.60;;;5.50;89.40;;;;;;5050295;28;20025;-84
2021/11/25 01:39:42;;;;;;;65.57;43.50;;;5.50;89.40;;;;;;5047122;28;20472;-84
2021/11/25 01:42:08;;;;;;;63.25;40.70;;;5.50;89.40;;;;;;5051514;28;20383;-84
2021/11/25 01:44:34;;;;;;;66.70;42.17;;;5.50;89.40;;;;;;5051563;28;20048;-83
2021/11/25 01:47:02;;;;;;;66.50;44.08;;;5.50;89.50;;;;;;5053243;28;20029;-84
2021/11/25 01:49:28;;;;;;;66.75;43.00;;;5.60;89.40;;;;;;5052087;28;20037;-87
2021/11/25 01:51:53;;;;;;;71.15;45.10;;;5.50;89.30;;;;;;5051795;28;20052;-85
2021/11/25 01:54:19;;;;;;;65.57;42.17;;;5.50;89.40;;;;;;5057101;28;20040;-85
2021/11/25 01:56:45;;;;;;;73.40;42.65;;;5.60;89.40;;;;;;5052503;28;20124;-84
2021/11/25 01:59:11;;;;;;;64.72;42.03;;;5.60;89.40;;;;;;5050481;28;20044;-85
2021/11/25 02:01:37;;;;;;;62.08;41.00;;;5.50;89.40;;;;;;5053470;28;20048;-85
2021/11/25 02:04:05;;;;;;;65.18;42.50;;;5.60;89.50;;;;;;5059181;28;20037;-83
2021/11/25 02:06:32;;;;;;;63.28;41.47;;;5.60;89.40;;;;;;5053590;28;20033;-84
2021/11/25 02:08:59;;;;;;;70.75;46.40;;;5.60;89.40;;;;;;5048606;28;20029;-84
2021/11/25 02:11:25;;;;;;;60.88;40.90;;;5.60;89.40;;;;;;5041522;28;20048;-85
2021/11/25 02:13:51;;;;;;;64.38;42.25;;;5.60;89.50;;;;;;5053439;28;20091;-84
2021/11/25 02:16:17;;;;;;;64.63;41.30;;;5.60;89.40;;;;;;5060168;28;20033;-85
2021/11/25 02:18:44;;;;;;;61.15;39.63;;;5.60;89.40;;;;;;5059955;28;20086;-84
2021/11/25 02:21:10;;;;;;;70.50;43.30;;;5.60;89.40;;;;;;5046990;28;20483;-84
2021/11/25 02:23:36;;;;;;;66.25;42.72;;;5.60;89.40;;;;;;5040631;28;20034;-85
2021/11/25 02:26:02;;;;;;;71.43;43.88;;;5.60;89.40;;;;;;5049617;28;20045;-83
2021/11/25 02:28:31;;;;;;;59.03;40.35;;;5.60;89.40;;;;;;5051994;28;20017;-84
2021/11/25 02:30:57;;;;;;;61.15;40.53;;;5.60;89.50;;;;;;5050536;28;20468;-84
2021/11/25 02:33:23;;;;;;;63.30;42.38;;;5.60;89.40;;;;;;5045740;28;20033;-83
2021/11/25 02:35:50;;;;;;;59.67;38.78;;;5.60;89.40;;;;;;5039687;28;20108;-85
2021/11/25 02:38:15;;;;;;;66.03;40.75;;;5.60;89.50;;;;;;5045049;28;20043;-85
2021/11/25 02:40:53;;;;;;;63.00;40.45;;;5.60;89.40;;;;;;5041947;28;20037;-83
2021/11/25 02:43:26;;;;;;;61.60;38.42;;;5.60;89.40;;;;;;5046703;28;20048;-84
2021/11/25 02:45:58;;;;;;;67.25;41.60;;;5.60;89.50;;;;;;5051033;28;20139;-85
2021/11/25 02:48:38;;;;;;;65.72;41.13;;;5.60;89.50;;;;;;5050256;28;20104;-83
2021/11/25 02:51:04;;;;;;;64.28;42.58;;;5.60;89.50;;;;;;5050417;28;20041;-83
2021/11/25 02:53:32;;;;;;;65.25;42.42;;;5.70;89.50;;;;;;5047255;28;20380;-84
2021/11/25 02:56:04;;;;;;;60.80;41.05;;;5.60;89.40;;;;;;5040149;28;20033;-83
2021/11/25 02:58:29;;;;;;;66.28;42.13;;;5.60;89.40;;;;;;5044671;28;20040;-85
2021/11/25 03:00:59;;;;;;;64.85;42.05;;;5.60;89.40;;;;;;5044592;28;20029;-85
2021/11/25 03:03:25;;;;;;;65.55;42.03;;;5.60;89.40;;;;;;5054699;28;20486;-84
2021/11/25 03:05:52;;;;;;;62.15;41.78;;;5.60;89.40;;;;;;5055547;28;20112;-84
2021/11/25 03:08:20;;;;;;;64.55;41.45;;;5.60;89.40;;;;;;5060046;28;20036;-84
2021/11/25 03:11:07;;;;;;;61.78;41.92;;;5.60;89.40;;;;;;5050064;28;20037;-84
2021/11/25 03:13:34;;;;;;;62.13;40.58;;;5.60;89.50;;;;;;5053170;28;20067;-84
2021/11/25 03:16:00;;;;;;;67.53;42.80;;;5.60;89.50;;;;;;5053108;28;20029;-84
2021/11/25 03:18:26;;;;;;;61.42;40.67;;;5.70;89.40;;;;;;5047703;28;20103;-84
2021/11/25 03:20:54;;;;;;;62.53;41.88;;;5.60;89.50;;;;;;5049226;28;20053;-84
2021/11/25 03:23:22;;;;;;;62.28;40.05;;;5.60;89.50;;;;;;5049962;28;20041;-84
2021/11/25 03:25:48;;;;;;;63.03;41.45;;;5.70;89.50;;;;;;5048109;28;20426;-84
2021/11/25 03:28:14;;;;;;;63.95;41.65;;;5.70;89.40;;;;;;5057768;28;20391;-84
2021/11/25 03:30:41;;;;;;;65.25;42.88;;;5.70;89.50;;;;;;5050328;28;20106;-84
2021/11/25 03:33:09;;;;;;;65.25;41.40;;;5.70;89.50;;;;;;5045498;28;20052;-84
2021/11/25 03:35:35;;;;;;;66.32;42.10;;;5.70;89.50;;;;;;5044327;28;20063;-84
2021/11/25 03:38:02;;;;;;;63.92;40.70;;;5.70;89.50;;;;;;5045189;28;20491;-83
2021/11/25 03:40:28;;;;;;;60.88;40.78;;;5.70;89.50;;;;;;5050059;28;20036;-84
2021/11/25 03:42:54;;;;;;;62.45;40.80;;;5.80;89.40;;;;;;5049849;28;20033;-84
2021/11/25 03:45:20;;;;;;;67.90;40.65;;;5.70;89.40;;;;;;5049223;28;20049;-84
2021/11/25 03:47:47;;;;;;;67.25;43.55;;;5.70;89.40;;;;;;5049849;28;20106;-84
2021/11/25 03:50:13;;;;;;;64.30;42.47;;;5.80;89.50;;;;;;5049477;28;20033;-84
2021/11/25 03:52:39;;;;;;;61.80;40.78;;;5.80;89.40;;;;;;5049762;28;20041;-84
2021/11/25 03:55:07;;;;;;;64.32;41.38;;;5.80;89.40;;;;;;5049100;28;20025;-84
2021/11/25 03:57:32;;;;;;;57.50;39.63;;;5.80;89.30;;;;;;5044937;28;20063;-84
2021/11/25 03:59:58;;;;;;;63.17;40.28;;;5.80;89.30;;;;;;5049121;28;20033;-85
2021/11/25 04:02:24;;;;;;;59.85;40.10;;;5.80;89.30;;;;;;5050918;28;20036;-84
2021/11/25 04:04:50;;;;;;;68.70;42.45;;;5.80;89.30;;;;;;5049907;28;20472;-84
2021/11/25 04:07:16;;;;;;;62.80;40.70;;;5.80;89.20;;;;;;5048488;28;20078;-84
2021/11/25 04:09:42;;;;;;;64.75;41.30;;;5.80;89.20;;;;;;5048050;28;20037;-84
2021/11/25 04:12:08;;;;;;;62.75;41.67;;;5.80;89.30;;;;;;5047617;28;20033;-84
2021/11/25 04:14:34;;;;;;;62.55;41.03;;;5.80;89.30;;;;;;5049332;28;20079;-85
2021/11/25 04:17:00;;;;;;;62.58;41.22;;;5.80;89.30;;;;;;5049518;28;20025;-85
2021/11/25 04:19:26;;;;;;;65.95;42.40;;;5.80;89.20;;;;;;5046422;28;20028;-84
2021/11/25 04:21:53;;;;;;;66.05;42.38;;;5.90;89.10;;;;;;5065924;28;20044;-84
2021/11/25 04:24:18;;;;;;;69.15;44.15;;;5.80;89.10;;;;;;5050652;28;20049;-85
2021/11/25 04:26:44;;;;;;;67.13;41.97;;;5.80;89.10;;;;;;5048880;28;20105;-84
2021/11/25 04:29:11;;;;;;;71.85;43.72;;;5.80;89.10;;;;;;5049824;28;20021;-85
2021/11/25 04:37:10;;;;;;;65.63;42.85;;;5.90;88.90;;;;;;5050400;28;20068;-85
2021/11/25 04:39:36;;;;;;;63.95;42.63;;;5.90;88.90;;;;;;5048688;28;20029;-85
2021/11/25 04:42:02;;;;;;;67.18;42.75;;;5.90;88.90;;;;;;5044670;28;20033;-84
2021/11/25 04:44:28;;;;;;;69.82;43.75;;;5.90;88.90;;;;;;5051032;28;20036;-85
2021/11/25 04:46:53;;;;;;;72.40;44.72;;;5.90;88.90;;;;;;5053132;28;20049;-84
2021/11/25 04:49:19;;;;;;;73.93;47.08;;;5.90;89.00;;;;;;5073666;28;20021;-84
2021/11/25 04:51:45;;;;;;;71.05;45.47;;;5.90;89.10;;;;;;5074450;28;20032;-89
2021/11/25 04:54:11;;;;;;;76.13;46.53;;;5.90;89.10;;;;;;5060011;28;20068;-84
2021/11/25 04:56:36;;;;;;;72.28;44.38;;;6.00;89.10;;;;;;5050327;28;20412;-83
2021/11/25 04:59:02;;;;;;;66.85;43.55;;;6.00;89.10;;;;;;5050097;28;20107;-84
2021/11/25 05:01:28;;;;;;;72.97;46.03;;;6.00;89.20;;;;;;5062024;28;20088;-83
2021/11/25 05:03:54;;;;;;;64.55;42.25;;;6.00;89.20;;;;;;5070167;28;20037;-82
2021/11/25 05:06:19;;;;;;;71.10;44.33;;;6.00;89.20;;;;;;5061642;28;20134;-83
2021/11/25 05:08:45;;;;;;;69.07;44.75;;;6.00;89.20;;;;;;5066076;28;20075;-87
2021/11/25 05:11:13;;;;;;;70.05;44.85;;;6.00;89.20;;;;;;5057151;28;20048;-83
2021/11/25 05:13:39;;;;;;;70.43;45.28;;;6.00;89.20;;;;;;5068094;28;20055;-85
2021/11/25 05:16:05;;;;;;;81.20;46.55;;;6.00;89.20;;;;;;5061544;28;20029;-86
2021/11/25 05:18:31;;;;;;;70.40;45.65;;;6.10;89.30;;;;;;5063414;28;20033;-83
2021/11/25 05:20:56;;;;;;;70.85;44.28;;;6.10;89.30;;;;;;5070356;28;20032;-86
2021/11/25 05:23:22;;;;;;;67.18;46.42;;;6.10;89.30;;;;;;5059806;28;20044;-83
2021/11/25 05:25:48;;;;;;;73.93;44.38;;;6.10;89.30;;;;;;5061541;28;20052;-85
2021/11/25 05:28:14;;;;;;;75.57;45.83;;;6.10;89.30;;;;;;5067923;28;20395;-83
2021/11/25 05:30:40;;;;;;;68.88;45.05;;;6.10;89.30;;;;;;5069493;28;20025;-86
2021/11/25 05:33:06;;;;;;;73.95;44.63;;;6.10;89.40;;;;;;5069653;28;20025;-85
2021/11/25 05:35:32;;;;;;;80.80;47.20;;;6.20;89.40;;;;;;5072538;28;20041;-89
2021/11/25 05:37:58;;;;;;;67.70;43.75;;;6.20;89.50;;;;;;5070377;28;20021;-85
2021/11/25 05:40:24;;;;;;;76.20;45.50;;;6.20;89.50;;;;;;5066808;28;20052;-84
2021/11/25 05:42:50;;;;;;;71.38;44.78;;;6.20;89.60;;;;;;5058354;28;20039;-82
2021/11/25 05:45:19;;;;;;;68.80;42.97;;;6.20;89.60;;;;;;5052816;28;20451;-83
2021/11/25 05:47:47;;;;;;;71.72;43.92;;;6.20;89.70;;;;;;5050570;28;20026;-83
2021/11/25 05:50:17;;;;;;;67.45;42.88;;;6.20;89.80;;;;;;5048807;28;20431;-83
2021/11/25 05:52:44;;;;;;;69.47;45.50;;;6.20;89.90;;;;;;5043170;28;20035;-83
2021/11/25 05:55:10;;;;;;;70.65;44.75;;;6.20;89.90;;;;;;5047644;28;20460;-83
2021/11/25 05:57:37;;;;;;;71.22;43.90;;;6.30;90.00;;;;;;5047301;28;20037;-83
2021/11/25 06:00:10;;;;;;;70.88;44.85;;;6.20;90.00;;;;;;5043781;28;20033;-83
2021/11/25 06:02:37;;;;;;;60.75;40.80;;;6.20;90.10;;;;;;5049457;28;20065;-81
2021/11/25 06:05:03;;;;;;;68.35;44.47;;;6.20;90.10;;;;;;5050627;28;20107;-82
2021/11/25 06:07:29;;;;;;;72.68;45.50;;;6.20;90.20;;;;;;5044603;28;20038;-85
2021/11/25 06:09:55;;;;;;;69.10;44.75;;;6.20;90.30;;;;;;5046897;28;20180;-84
2021/11/25 06:12:20;;;;;;;64.57;44.45;;;6.20;90.30;;;;;;5039861;28;20172;-84
2021/11/25 06:14:46;;;;;;;75.95;46.92;;;6.20;90.40;;;;;;5042845;28;20472;-85
2021/11/25 06:17:12;;;;;;;74.43;46.20;;;6.10;90.50;;;;;;5043751;28;20064;-84
2021/11/25 06:19:37;;;;;;;75.53;47.28;;;6.10;90.50;;;;;;5046643;28;20044;-84
2021/11/25 06:22:03;;;;;;;68.60;45.05;;;6.10;90.50;;;;;;5045896;28;20053;-85
2021/11/25 06:24:29;;;;;;;69.63;45.90;;;6.10;90.50;;;;;;5043621;28;20049;-83
2021/11/25 06:26:55;;;;;;;63.05;42.95;;;6.00;90.50;;;;;;5044909;28;20446;-84
2021/11/25 06:29:21;;;;;;;72.30;42.83;;;6.00;90.60;;;;;;5050122;28;20045;-84
2021/11/25 06:31:47;;;;;;;70.47;44.45;;;5.90;90.60;;;;;;5050404;28;20406;-85
2021/11/25 06:34:15;;;;;;;70.85;45.63;;;5.90;90.70;;;;;;5044457;28;20556;-84
2021/11/25 06:36:40;;;;;;;73.65;49.85;;;5.90;90.70;;;;;;5050207;28;20033;-84
2021/11/25 06:39:07;;;;;;;71.15;49.45;;;5.80;90.70;;;;;;5044458;28;20810;-86
2021/11/25 06:41:33;;;;;;;70.70;46.67;;;5.80;90.80;;;;;;5049747;28;20411;-84
2021/11/25 06:43:59;;;;;;;71.00;48.08;;;5.80;90.90;;;;;;5047919;28;20052;-85
2021/11/25 06:46:25;;;;;;;74.90;46.78;;;5.80;90.90;;;;;;5048541;28;20037;-84
2021/11/25 06:48:50;;;;;;;73.22;47.50;;;5.80;91.00;;;;;;5046881;28;20382;-85
2021/11/25 06:51:16;;;;;;;71.80;45.67;;;5.80;91.00;;;;;;5048332;28;20029;-85
2021/11/25 06:53:42;;;;;;;69.55;45.53;;;5.80;91.00;;;;;;5048910;28;20083;-87
2021/11/25 06:56:08;;;;;;;76.22;48.10;;;5.80;91.10;;;;;;5048149;28;20032;-83
2021/11/25 06:58:33;;;;;;;73.82;46.50;;;5.80;91.10;;;;;;5050910;28;20037;-84
2021/11/25 07:01:05;;;;;;;71.95;46.63;;;5.70;91.20;;;;;;5045281;28;20105;-85
2021/11/25 07:03:33;;;;;;;73.38;46.05;;;5.80;91.20;;;;;;5048271;28;20044;-85
2021/11/25 07:05:59;;;;;;;72.55;43.85;;;5.70;91.30;;;;;;5046728;28;20041;-84
2021/11/25 07:08:25;;;;;;;72.30;45.95;;;5.70;91.30;;;;;;5043613;28;20045;-84
2021/11/25 07:10:51;;;;;;;72.65;44.67;;;5.70;91.30;;;;;;5050593;28;20117;-83
2021/11/25 07:13:16;;;;;;;71.82;46.38;;;5.70;91.40;;;;;;5047213;28;20483;-83
2021/11/25 07:15:42;;;;;;;82.20;49.10;;;5.70;91.30;;;;;;5051770;28;20132;-84
2021/11/25 07:18:08;;;;;;;72.80;44.90;;;5.60;91.40;;;;;;5053635;28;20120;-84
2021/11/25 07:20:34;;;;;;;72.68;46.97;;;5.60;91.40;;;;;;5048895;28;20033;-86
2021/11/25 07:22:59;;;;;;;70.32;46.10;;;5.60;91.40;;;;;;5049356;28;22572;-83
2021/11/25 07:25:25;;;;;;;73.60;45.92;;;5.60;91.50;;;;;;5047896;28;20392;-83
2021/11/25 07:27:52;;;;;;;73.82;46.13;;;5.60;91.50;;;;;;5048334;28;20582;-83
2021/11/25 07:30:19;;;;;;;66.55;44.50;;;5.60;91.50;;;;;;5047432;28;20048;-84
2021/11/25 07:32:45;;;;;;;71.47;45.55;;;5.60;91.60;;;;;;5050210;28;20047;-82
2021/11/25 07:35:12;;;;;;;68.05;45.70;;;5.60;91.60;;;;;;5068178;28;20043;-82
2021/11/25 07:37:38;;;;;;;74.47;45.83;;;5.60;91.70;;;;;;5056771;28;20043;-84
2021/11/25 07:40:06;;;;;;;74.53;49.63;;;5.60;91.70;;;;;;5046620;28;20140;-84
2021/11/25 07:42:32;;;;;;;75.38;49.00;;;5.60;91.80;;;;;;5045958;28;20551;-84
2021/11/25 07:44:57;;;;;;;74.55;47.17;;;5.60;91.80;;;;;;5044895;28;20128;-84
2021/11/25 07:47:32;;;;;;;71.45;44.55;;;5.60;91.80;;;;;;5040376;28;20091;-84
2021/11/25 07:49:57;;;;;;;73.60;47.88;;;5.60;91.70;;;;;;5047193;28;20037;-84
2021/11/25 07:52:23;;;;;;;85.40;52.30;;;5.60;91.80;;;;;;5045041;28;20377;-86
2021/11/25 07:54:49;;;;;;;75.30;47.78;;;5.60;91.80;;;;;;5044419;28;20140;-84
2021/11/25 07:57:14;;;;;;;88.15;52.42;;;5.70;91.90;;;;;;5041351;28;20037;-84
2021/11/25 07:59:40;;;;;;;79.78;50.50;;;5.70;91.80;;;;;;5047764;28;20028;-85
2021/11/25 08:02:05;;;;;;;86.80;52.03;;;5.80;91.80;;;;;;5046724;28;20472;-85
2021/11/25 08:04:31;;;;;;;78.28;48.83;;;5.80;91.80;;;;;;5047177;28;20047;-82
2021/11/25 08:06:57;;;;;;;78.30;49.03;;;5.90;91.90;;;;;;5042627;28;20095;-82
2021/11/25 08:09:23;;;;;;;79.13;50.15;;;5.90;91.80;;;;;;5050703;28;20029;-82
2021/11/25 08:11:48;;;;;;;83.63;52.10;;;6.00;91.80;;;;;;5048525;28;20075;-82
2021/11/25 08:14:15;;;;;;;83.45;51.03;;;6.10;91.90;;;;;;5043372;28;20047;-82
2021/11/25 08:16:40;;;;;;;78.43;49.83;;;6.10;91.80;;;;;;5049292;28;20079;-82
2021/11/25 08:19:06;;;;;;;77.13;50.20;;;6.20;91.80;;;;;;5047833;28;20025;-85
2021/11/25 08:21:34;;;;;;;92.55;55.90;;;6.20;91.80;;;;;;5052416;28;20037;-82
2021/11/25 08:24:00;;;;;;;79.55;50.85;;;6.20;91.80;;;;;;5051329;28;20060;-82
2021/11/25 08:26:25;;;;;;;78.15;49.78;;;6.30;91.80;;;;;;5066772;28;20021;-81
2021/11/25 08:28:51;;;;;;;84.22;53.88;;;6.40;91.80;;;;;;5071801;28;20032;-85
2021/11/25 08:31:17;;;;;;;82.95;52.58;;;6.40;91.80;;;;;;5063597;28;20043;-82
2021/11/25 08:33:42;;;;;;;77.35;49.13;;;6.50;91.70;;;;;;5041868;28;20121;-84
2021/11/25 08:36:08;;;;;;;88.65;53.60;;;6.60;91.70;;;;;;5041299;28;20495;-83
2021/11/25 08:38:34;;;;;;;82.90;51.17;;;6.70;91.80;;;;;;5048047;28;20043;-85
2021/11/25 08:41:03;;;;;;;86.07;53.85;;;6.80;91.90;;;;;;5046920;28;20059;-82
2021/11/25 08:43:29;;;;;;;81.38;53.45;;;7.00;91.90;;;;;;5041172;28;20381;-83
2021/11/25 08:45:54;;;;;;;83.28;54.40;;;7.10;91.60;;;;;;5045101;28;20040;-83
2021/11/25 08:48:20;;;;;;;83.32;53.03;;;7.30;91.70;;;;;;5037871;28;20083;-83
2021/11/25 08:50:47;;;;;;;79.20;50.90;;;7.50;91.40;;;;;;5046399;28;20036;-83
2021/11/25 08:53:13;;;;;;;71.57;48.22;;;7.60;90.70;;;;;;5045147;28;20613;-82
2021/11/25 08:55:39;;;;;;;73.45;49.53;;;7.60;90.20;;;;;;5042516;28;20033;-82
2021/11/25 08:58:05;;;;;;;69.90;47.15;;;7.60;89.90;;;;;;5042174;28;20043;-82
2021/11/25 09:00:33;;;;;;;73.20;47.13;;;7.50;89.90;;;;;;5041922;28;20441;-83
2021/11/25 09:03:03;;;;;;;68.35;48.42;;;7.50;89.80;;;;;;5041428;28;20057;-83
2021/11/25 09:05:29;;;;;;;73.32;47.40;;;7.50;89.80;;;;;;5053567;28;20052;-82
2021/11/25 09:07:55;;;;;;;72.63;48.45;;;7.50;89.90;;;;;;5051507;28;20538;-84
2021/11/25 09:10:21;;;;;;;68.10;46.63;;;7.50;90.10;;;;;;5046095;28;20089;-84
2021/11/25 09:12:48;;;;;;;75.47;49.05;;;7.60;90.10;;;;;;5047404;28;20399;-83
2021/11/25 09:15:15;;;;;;;76.40;49.42;;;7.50;90.00;;;;;;5046788;28;20124;-83
2021/11/25 09:17:40;;;;;;;68.88;46.10;;;7.60;90.00;;;;;;5043178;28;20037;-82
2021/11/25 09:20:07;;;;;;;69.70;47.92;;;7.60;90.00;;;;;;5047307;28;20055;-82
2021/11/25 09:22:33;;;;;;;68.53;46.35;;;7.60;89.90;;;;;;5046232;28;20048;-83
2021/11/25 09:24:58;;;;;;;75.40;47.92;;;7.70;90.00;;;;;;5047835;28;20041;-83
2021/11/25 09:27:25;;;;;;;67.45;45.83;;;7.80;89.90;;;;;;5047870;28;20091;-82
2021/11/25 09:29:50;;;;;;;71.25;48.17;;;7.80;89.90;;;;;;5050048;28;20021;-82
2021/11/25 09:32:16;;;;;;;68.15;46.45;;;7.90;89.90;;;;;;5045439;28;20365;-83
2021/11/25 09:34:42;;;;;;;70.60;47.08;;;8.00;89.80;;;;;;5047508;28;20044;-83
2021/11/25 09:37:08;;;;;;;79.72;49.42;;;7.90;89.60;;;;;;5044328;28;20029;-84
2021/11/25 09:39:34;;;;;;;69.15;46.22;;;8.00;89.40;;;;;;5050338;28;20129;-83
2021/11/25 09:42:00;;;;;;;68.60;47.97;;;7.90;89.40;;;;;;5050917;28;20120;-82
2021/11/25 09:44:26;;;;;;;71.68;48.92;;;8.10;89.60;;;;;;5047269;28;20075;-83
2021/11/25 09:46:57;;;;;;;65.63;46.58;;;8.10;89.50;;;;;;5046862;28;20033;-82
2021/11/25 09:49:24;;;;;;;66.53;47.75;;;8.20;89.60;;;;;;5049262;28;20117;-81
2021/11/25 09:51:51;;;;;;;65.63;44.90;;;8.30;89.40;;;;;;5030596;28;20034;-81
2021/11/25 09:54:17;;;;;;;69.63;48.20;;;8.30;89.20;;;;;;5067709;28;20056;-82
2021/11/25 09:56:43;;;;;;;75.80;49.20;;;8.40;88.90;;;;;;5067334;28;20025;-81
2021/11/25 09:59:10;;;;;;;64.13;45.50;;;8.40;88.90;;;;;;5071178;28;20070;-81
2021/11/25 10:01:36;;;;;;;63.85;45.35;;;8.50;89.00;;;;;;5057235;28;20454;-82
2021/11/25 10:04:02;;;;;;;65.57;43.60;;;8.50;88.90;;;;;;5053372;28;20116;-81
2021/11/25 10:06:33;;;;;;;58.72;43.65;;;8.60;88.50;;;;;;5055515;28;20399;-82
2021/11/25 10:08:59;;;;;;;64.05;45.63;;;8.60;88.60;;;;;;5049684;28;20554;-80
2021/11/25 10:11:31;;;;;;;59.97;42.95;;;8.50;88.40;;;;;;5045443;28;20041;-80
2021/11/25 10:14:04;;;;;;;63.85;44.03;;;8.60;88.40;;;;;;5045166;28;20121;-80
2021/11/25 10:16:35;;;;;;;58.65;43.20;;;8.60;88.30;;;;;;5036728;28;20111;-80
2021/11/25 10:19:27;;;;;;;57.53;41.85;;;8.60;88.30;;;;;;5050447;28;20032;-80
2021/11/25 10:21:56;;;;;;;55.78;40.58;;;8.60;88.40;;;;;;5054105;28;20052;-80
2021/11/25 10:24:34;;;;;;;56.88;42.17;;;8.60;88.40;;;;;;5048345;28;20045;-80
2021/11/25 10:27:25;;;;;;;45.95;34.83;;;8.60;88.50;;;;;;5049776;28;20037;-80
2021/11/25 10:30:17;;;;;;;51.20;37.58;;;8.50;88.10;;;;;;5042123;28;20069;-80
2021/11/25 10:32:59;;;;;;;59.60;46.35;;;8.50;88.40;;;;;;5046428;28;20048;-79
2021/11/25 10:35:32;;;;;;;53.22;39.35;;;8.50;88.50;;;;;;5045785;28;20052;-81
2021/11/25 10:40:31;;;;;;;53.33;39.90;;;8.50;88.60;;;;;;5045257;28;20068;-80
2021/11/25 10:42:56;;;;;;;50.90;38.67;;;8.50;88.80;;;;;;5048082;28;20487;-80
2021/11/25 10:45:22;;;;;;;47.92;34.22;;;8.50;88.90;;;;;;5043417;28;20048;-82
2021/11/25 10:48:05;;;;;;;50.03;37.45;;;8.50;88.90;;;;;;5052373;28;20037;-80
2021/11/25 10:50:33;;;;;;;60.83;46.80;;;8.50;89.00;;;;;;5045010;28;20033;-79
2021/11/25 10:53:09;;;;;;;53.78;40.90;;;8.50;89.10;;;;;;5046952;28;20106;-80
2021/11/25 10:55:38;;;;;;;51.05;36.70;;;8.40;89.20;;;;;;5046671;28;20483;-80
2021/11/25 10:58:06;;;;;;;49.10;38.42;;;8.40;89.40;;;;;;5047220;28;20029;-80
2021/11/25 11:00:40;;;;;;;44.65;36.92;;;8.40;89.60;;;;;;5047210;28;20481;-80
2021/11/25 11:03:26;;;;;;;45.95;33.58;;;8.40;89.70;;;;;;5036553;28;20037;-80
2021/11/25 11:05:56;;;;;;;40.42;29.88;;;8.40;89.80;;;;;;5047920;28;20467;-79
2021/11/25 11:08:24;;;;;;;38.35;26.35;;;8.40;90.10;;;;;;5047088;28;20048;-79
2021/11/25 11:10:54;;;;;;;26.75;19.33;;;8.40;90.30;;;;;;5050557;28;20071;-79
2021/11/25 11:16:23;;;;;;;19.33;10.93;;;8.40;90.80;;;;;;5045922;28;20067;-78
2021/11/25 11:18:58;;;;;;;19.33;10.50;;;8.40;90.90;;;;;;5046418;28;20120;-79
2021/11/25 11:21:29;;;;;;;17.30;11.23;;;8.40;91.00;;;;;;5044973;28;20037;-77
2021/11/25 11:23:56;;;;;;;18.45;11.27;;;8.40;91.30;;;;;;5047434;28;20041;-78
2021/11/25 11:26:22;;;;;;;20.08;11.57;;;8.40;91.50;;;;;;5036616;28;20096;-79
2021/11/25 11:28:48;;;;;;;17.83;12.05;;;8.40;91.60;;;;;;5036474;28;20468;-80
2021/11/25 11:31:15;;;;;;;17.02;10.35;;;8.40;91.80;;;;;;5040188;28;20029;-80
2021/11/25 11:33:41;;;;;;;16.17;10.80;;;8.40;91.70;;;;;;5036784;28;20048;-79
2021/11/25 11:36:08;;;;;;;18.58;12.88;;;8.50;91.80;;;;;;5038708;28;20049;-78
2021/11/25 11:38:35;;;;;;;17.23;10.38;;;8.50;91.70;;;;;;5038195;28;20554;-78
2021/11/25 11:41:03;;;;;;;14.23;9.73;;;8.60;91.70;;;;;;5038414;28;20352;-79
2021/11/25 11:43:30;;;;;;;15.88;10.23;;;8.70;91.80;;;;;;5039907;28;20049;-81
2021/11/25 11:45:57;;;;;;;13.85;8.70;;;8.70;91.60;;;;;;5044190;28;20056;-80
2021/11/25 11:48:24;;;;;;;13.98;7.95;;;8.70;91.50;;;;;;5038013;28;20455;-79
2021/11/25 11:50:57;;;;;;;19.20;7.72;;;8.70;91.20;;;;;;5038294;28;20078;-80
2021/11/25 11:53:25;;;;;;;13.85;7.05;;;8.70;91.10;;;;;;5039780;28;20041;-79
2021/11/25 11:56:03;;;;;;;14.35;7.45;;;8.60;90.80;;;;;;5055946;28;20033;-78
2021/11/25 11:58:34;;;;;;;16.35;7.80;;;8.70;90.90;;;;;;5037498;28;20041;-79
2021/11/25 12:01:16;;;;;;;16.98;7.80;;;8.80;91.00;;;;;;5041994;28;20052;-79
2021/11/25 12:03:48;;;;;;;15.88;7.93;;;8.90;90.80;;;;;;5041203;28;20480;-79
2021/11/25 12:06:40;;;;;;;13.45;6.88;;;9.00;91.00;;;;;;5037841;28;20472;-80
2021/11/25 12:09:14;;;;;;;13.68;6.35;;;9.10;90.60;;;;;;5039126;28;20052;-82
2021/11/25 12:11:47;;;;;;;14.38;6.97;;;9.30;89.90;;;;;;5037132;28;20496;-79
2021/11/25 12:14:24;;;;;;;15.32;6.25;;;9.40;89.80;;;;;;5036751;28;20164;-78
2021/11/25 12:16:59;;;;;;;20.83;6.93;;;9.50;89.50;;;;;;5037830;28;20033;-79
2021/11/25 12:19:34;;;;;;;12.55;5.00;;;9.50;89.30;;;;;;5037130;28;20040;-78
2021/11/25 12:22:15;;;;;;;13.65;4.03;;;9.60;89.10;;;;;;5041262;28;20068;-78
2021/11/25 12:24:49;;;;;;;11.60;4.20;;;9.50;88.10;;;;;;5039203;28;20103;-78
2021/11/25 12:27:35;;;;;;;10.65;3.40;;;9.60;88.40;;;;;;5037811;28;20033;-79
2021/11/25 12:30:13;;;;;;;12.45;3.88;;;9.50;87.70;;;;;;5040047;28;20116;-81
2021/11/25 12:32:48;;;;;;;15.80;3.88;;;9.50;87.70;;;;;;5037956;28;20041;-80
2021/11/25 12:35:14;;;;;;;13.60;4.20;;;9.60;87.40;;;;;;5039442;28;20094;-80
2021/11/25 12:37:54;;;;;;;14.63;4.13;;;9.60;86.80;;;;;;5037589;28;20037;-79
2021/11/25 12:40:20;;;;;;;9.77;3.78;;;9.60;86.80;;;;;;5045385;28;20062;-79
2021/11/25 12:42:59;;;;;;;11.73;4.10;;;9.60;86.60;;;;;;5043415;28;20037;-79
2021/11/25 12:45:29;;;;;;;17.70;4.97;;;9.60;86.30;;;;;;5041162;28;20436;-79
2021/11/25 12:48:11;;;;;;;12.18;4.53;;;9.60;85.90;;;;;;5043353;28;20545;-78
2021/11/25 12:50:44;;;;;;;16.25;3.20;;;9.60;86.30;;;;;;5045322;28;20102;-79
2021/11/25 12:53:25;;;;;;;14.93;3.50;;;9.60;86.00;;;;;;5046965;28;20364;-80